createdAt,value
2022-10-20T00:04:34.460Z,102179.81
2022-10-20T00:09:35.980Z,102172.91
2022-10-20T00:14:38.631Z,102176.47
2022-10-20T00:19:40.142Z,102175.47
2022-10-20T00:24:42.160Z,102163.75
2022-10-20T00:29:43.740Z,102140.22
2022-10-20T00:34:45.649Z,102135.81
2022-10-20T00:39:47.203Z,102119.38
2022-10-20T00:44:59.593Z,102112.28
2022-10-20T00:50:34.456Z,102103.91
2022-10-20T00:55:39.697Z,102099.34
2022-10-20T01:00:44.446Z,102088.91
2022-10-20T01:05:46.117Z,102079.22
2022-10-20T01:11:03.698Z,102065.22
2022-10-20T01:16:11.218Z,102060.75
2022-10-20T01:21:52.992Z,102053.78
2022-10-20T01:27:14.247Z,102046.31
2022-10-20T01:32:23.947Z,102054.06
2022-10-20T01:37:34.329Z,102031.53
2022-10-20T01:42:50.488Z,102029.38
2022-10-20T01:47:54.660Z,102009.63
2022-10-20T01:52:59.779Z,102004.19
2022-10-20T01:58:23.139Z,102000.28
2022-10-20T02:03:54.234Z,101997.31
2022-10-20T02:09:01.270Z,101987.56
2022-10-20T02:14:04.983Z,101986.88
2022-10-20T02:19:09.102Z,101980.47
2022-10-20T02:24:14.010Z,101968.34
2022-10-20T02:29:26.310Z,101969.94
2022-10-20T02:34:28.065Z,101952.81
2022-10-20T02:39:29.545Z,101952.88
2022-10-20T02:44:31.104Z,101946.09
2022-10-20T02:49:32.566Z,101938.44
2022-10-20T02:54:34.089Z,101930.56
2022-10-20T02:59:35.611Z,101932.59
2022-10-20T03:04:37.084Z,101923.50
2022-10-20T03:09:38.691Z,101920.22
2022-10-20T03:14:42.709Z,101920.13
2022-10-20T03:19:44.174Z,101922.09
2022-10-20T03:24:45.638Z,101921.72
2022-10-20T03:29:47.127Z,101908.72
2022-10-20T03:34:48.673Z,101910.94
2022-10-20T03:39:50.287Z,101888.78
2022-10-20T03:44:51.761Z,101888.69
2022-10-20T03:49:53.265Z,101897.78
2022-10-20T03:54:54.781Z,101888.69
2022-10-20T03:59:56.247Z,101895.22
2022-10-20T04:04:57.792Z,101883.22
2022-10-20T04:10:02.137Z,101868.06
2022-10-20T04:15:05.376Z,101863.53
2022-10-20T04:20:07.655Z,101851.44
2022-10-20T04:25:09.547Z,101847.31
2022-10-20T04:30:11.403Z,101846.25
2022-10-20T04:35:12.876Z,101836.44
2022-10-20T04:40:14.390Z,101840.88
2022-10-20T04:45:16.871Z,101820.75
2022-10-20T04:50:18.475Z,101814.41
2022-10-20T04:55:32.237Z,101814.69
2022-10-20T05:00:33.698Z,101805.22
2022-10-20T05:05:35.170Z,101802.03
2022-10-20T05:10:36.872Z,101780.19
2022-10-20T05:15:38.438Z,101762.34
2022-10-20T05:20:41.168Z,101758.47
2022-10-20T05:25:48.451Z,101722.78
2022-10-20T05:30:49.949Z,101724.75
2022-10-20T05:35:51.458Z,101722.66
2022-10-20T05:40:53.028Z,101701.59
2022-10-20T05:45:55.066Z,101700.16
2022-10-20T05:50:56.543Z,101717.16
2022-10-20T05:56:05.512Z,101707.16
2022-10-20T06:01:18.014Z,101684.97
2022-10-20T06:06:21.740Z,101688.56
2022-10-20T06:11:23.520Z,101693.34
2022-10-20T06:16:27.042Z,101695.97
2022-10-20T06:21:31.421Z,101677.38
2022-10-20T06:26:38.312Z,101684.28
2022-10-20T06:31:43.059Z,101673.47
2022-10-20T06:36:45.570Z,101672.19
2022-10-20T06:41:51.775Z,101684.34
2022-10-20T06:46:54.615Z,101677.72
2022-10-20T06:51:56.219Z,101675.63
2022-10-20T06:56:57.707Z,101675.69
2022-10-20T07:01:59.262Z,101681.78
2022-10-20T07:07:00.745Z,101681.59
2022-10-20T07:12:02.226Z,101670.31
2022-10-20T07:17:07.035Z,101662.50
2022-10-20T07:22:08.631Z,101647.75
2022-10-20T07:27:10.150Z,101653.19
2022-10-20T07:32:11.610Z,101632.25
2022-10-20T07:37:13.142Z,101614.81
2022-10-20T07:42:14.674Z,101629.16
2022-10-20T07:47:21.023Z,101627.31
2022-10-20T07:52:22.486Z,101612.25
2022-10-20T07:57:24.080Z,101590.78
2022-10-20T08:02:25.589Z,101568.75
2022-10-20T08:07:27.094Z,101561.72
2022-10-20T08:12:28.571Z,101551.47
2022-10-20T08:17:30.060Z,101553.03
2022-10-20T08:22:31.598Z,101541.50
2022-10-20T08:27:33.075Z,101535.78
2022-10-20T08:32:34.725Z,101510.13
2022-10-20T08:37:37.061Z,101502.41
2022-10-20T08:42:44.298Z,101518.13
2022-10-20T08:47:47.664Z,101486.03
2022-10-20T08:52:56.168Z,101460.94
2022-10-20T08:58:03.123Z,101453.16
2022-10-20T09:03:24.161Z,101442.91
2022-10-20T09:08:30.341Z,101431.25
2022-10-20T09:13:32.985Z,101417.81
2022-10-20T09:18:34.813Z,101411.50
2022-10-20T09:23:46.238Z,101405.06
2022-10-20T09:29:11.934Z,101410.59
2022-10-20T09:34:25.476Z,101411.31
2022-10-20T09:39:32.021Z,101388.31
2022-10-20T09:44:39.398Z,101367.97
2022-10-20T09:49:44.454Z,101395.88
2022-10-20T09:54:48.561Z,101393.91
2022-10-20T09:59:53.158Z,101393.16
2022-10-20T10:04:54.971Z,101402.84
2022-10-20T10:10:08.609Z,101404.34
2022-10-20T10:15:31.011Z,101420.97
2022-10-20T10:20:36.591Z,101412.56
2022-10-20T10:25:40.703Z,101390.50
2022-10-20T10:30:46.841Z,101387.41
2022-10-20T10:35:51.035Z,101389.16
2022-10-20T10:40:59.424Z,101393.66
2022-10-20T10:46:07.984Z,101411.97
2022-10-20T10:51:20.750Z,101415.53
2022-10-20T10:56:33.369Z,101407.69
2022-10-20T11:02:02.907Z,101405.22
2022-10-20T11:07:16.619Z,101419.94
2022-10-20T11:12:33.211Z,101426.34
2022-10-20T11:17:37.911Z,101424.91
2022-10-20T11:22:53.267Z,101421.75
2022-10-20T11:27:57.325Z,101408.28
2022-10-20T11:33:05.868Z,101393.81
2022-10-20T11:38:13.756Z,101404.16
2022-10-20T11:43:34.997Z,101417.03
2022-10-20T11:48:43.277Z,101431.50
2022-10-20T11:54:14.277Z,101431.38
2022-10-20T11:59:40.083Z,101431.28
2022-10-20T12:05:05.873Z,101459.59
2022-10-20T12:10:40.234Z,101483.56
2022-10-20T12:15:47.935Z,101495.66
2022-10-20T12:20:52.638Z,101493.00
2022-10-20T12:25:54.166Z,101506.16
2022-10-20T12:31:01.495Z,101519.56
2022-10-20T12:36:18.010Z,101546.97
2022-10-20T12:41:35.416Z,101553.72
2022-10-20T12:46:42.745Z,101533.22
2022-10-20T12:52:06.023Z,101559.53
2022-10-20T12:57:41.597Z,101580.91
2022-10-20T13:02:49.342Z,101585.16
2022-10-20T13:07:52.654Z,101606.41
2022-10-20T13:13:20.222Z,101599.84
2022-10-20T13:18:30.202Z,101612.88
2022-10-20T13:23:46.291Z,101662.97
2022-10-20T13:28:49.546Z,101675.34
2022-10-20T13:34:21.572Z,101679.59
2022-10-20T13:39:41.947Z,101688.66
2022-10-20T13:45:02.271Z,101688.38
2022-10-20T13:50:11.275Z,101678.53
2022-10-20T13:55:20.090Z,101676.88
2022-10-20T14:00:33.136Z,101675.03
2022-10-20T14:05:39.290Z,101675.63
2022-10-20T14:11:08.441Z,101681.88
2022-10-20T14:16:19.831Z,101689.84
2022-10-20T14:21:21.323Z,101690.09
2022-10-20T14:26:24.908Z,101667.13
2022-10-20T14:31:26.697Z,101648.41
2022-10-20T14:36:29.554Z,101629.16
2022-10-20T14:41:35.546Z,101603.84
2022-10-20T14:46:45.065Z,101601.75
2022-10-20T14:51:58.725Z,101604.38
2022-10-20T14:57:09.567Z,101616.75
2022-10-20T15:02:18.952Z,101619.50
2022-10-20T15:07:29.755Z,101622.84
2022-10-20T15:12:33.731Z,101610.28
2022-10-20T15:17:42.811Z,101593.19
2022-10-20T15:22:44.382Z,101570.56
2022-10-20T15:27:46.091Z,101562.72
2022-10-20T15:32:47.951Z,101559.25
2022-10-20T15:37:52.462Z,101532.34
2022-10-20T15:42:53.963Z,101539.28
2022-10-20T15:47:55.424Z,101525.41
2022-10-20T15:52:57.095Z,101534.69
2022-10-20T15:57:58.843Z,101532.81
2022-10-20T16:03:00.328Z,101534.31
2022-10-20T16:08:01.976Z,101529.94
2022-10-20T16:13:05.655Z,101525.59
2022-10-20T16:18:09.784Z,101526.19
2022-10-20T16:23:11.697Z,101519.41
2022-10-20T16:28:13.174Z,101506.44
2022-10-20T16:33:14.682Z,101506.91
2022-10-20T16:38:16.179Z,101505.88
2022-10-20T16:43:17.651Z,101500.84
2022-10-20T16:48:19.172Z,101504.84
2022-10-20T16:53:20.688Z,101490.88
2022-10-20T16:58:23.771Z,101496.19
2022-10-20T17:03:25.431Z,101488.31
2022-10-20T17:08:28.202Z,101489.19
2022-10-20T17:13:30.352Z,101488.31
2022-10-20T17:18:32.076Z,101487.41
2022-10-20T17:23:38.827Z,101474.34
2022-10-20T17:28:44.323Z,101476.94
2022-10-20T17:33:46.416Z,101477.56
2022-10-20T17:38:48.010Z,101487.38
2022-10-20T17:43:49.599Z,101474.22
2022-10-20T17:48:51.109Z,101474.50
2022-10-20T17:53:55.867Z,101464.06
2022-10-20T17:58:58.534Z,101460.72
2022-10-20T18:04:10.859Z,101451.03
2022-10-20T18:09:18.142Z,101449.25
2022-10-20T18:14:19.722Z,101430.31
2022-10-20T18:19:21.239Z,101437.00
2022-10-20T18:24:22.819Z,101437.88
2022-10-20T18:29:25.971Z,101437.56
2022-10-20T18:34:27.467Z,101433.34
2022-10-20T18:39:31.741Z,101435.09
2022-10-20T18:44:33.798Z,101432.53
2022-10-20T18:49:35.382Z,101424.81
2022-10-20T18:54:36.855Z,101411.06
2022-10-20T18:59:40.450Z,101400.72
2022-10-20T19:04:41.953Z,101409.25
2022-10-20T19:09:43.495Z,101419.59
2022-10-20T19:14:45.024Z,101413.63
2022-10-20T19:19:46.602Z,101406.72
2022-10-20T19:24:48.079Z,101398.34
2022-10-20T19:29:49.551Z,101378.50
2022-10-20T19:34:51.188Z,101380.09
2022-10-20T19:39:52.683Z,101374.16
2022-10-20T19:44:55.448Z,101360.38
2022-10-20T19:49:57.147Z,101356.94
2022-10-20T19:54:58.676Z,101353.41
2022-10-20T20:00:00.259Z,101341.19
2022-10-20T20:05:04.387Z,101353.06
2022-10-20T20:10:06.412Z,101342.38
2022-10-20T20:15:07.997Z,101349.19
2022-10-20T20:20:09.760Z,101350.00
2022-10-20T20:25:11.289Z,101349.94
2022-10-20T20:30:12.770Z,101363.06
2022-10-20T20:35:14.358Z,101359.09
2022-10-20T20:40:18.178Z,101353.19
2022-10-20T20:45:21.284Z,101349.75
2022-10-20T20:50:24.827Z,101343.69
2022-10-20T20:55:28.330Z,101349.75
2022-10-20T21:00:29.837Z,101348.94
2022-10-20T21:05:31.304Z,101337.66
2022-10-20T21:10:35.362Z,101334.16
2022-10-20T21:15:36.883Z,101346.19
2022-10-20T21:20:38.356Z,101339.88
2022-10-20T21:25:45.863Z,101351.84
2022-10-20T21:30:47.364Z,101357.69
2022-10-20T21:35:48.864Z,101349.84
2022-10-20T21:40:50.355Z,101344.56
2022-10-20T21:45:51.829Z,101356.38
2022-10-20T21:50:53.344Z,101367.78
2022-10-20T21:55:54.868Z,101375.41
2022-10-20T22:00:57.341Z,101386.59
2022-10-20T22:06:01.672Z,101380.47
2022-10-20T22:11:11.382Z,101394.38
2022-10-20T22:16:16.142Z,101395.13
2022-10-20T22:21:18.265Z,101392.56
2022-10-20T22:26:20.516Z,101390.81
2022-10-20T22:31:23.148Z,101386.31
2022-10-20T22:36:25.701Z,101376.91
2022-10-20T22:41:27.258Z,101372.59
2022-10-20T22:46:29.346Z,101361.44
2022-10-20T22:51:30.855Z,101364.25
2022-10-20T22:56:32.337Z,101376.41
2022-10-20T23:01:33.861Z,101362.63
2022-10-20T23:06:41.643Z,101360.19
2022-10-20T23:11:43.130Z,101359.63
2022-10-20T23:16:44.674Z,101364.88
2022-10-20T23:21:46.333Z,101360.72
2022-10-20T23:26:47.918Z,101356.69
2022-10-20T23:31:49.530Z,101338.78
2022-10-20T23:36:51.016Z,101333.00
2022-10-20T23:41:57.377Z,101308.06
2022-10-20T23:46:58.900Z,101303.94
2022-10-20T23:52:00.423Z,101291.09
2022-10-20T23:57:02.534Z,101275.69
